sensor_id;sensor_type;location;lat;lon;timestamp;temperature;humidity
25332;DHT22;13284;52.748;13.452;2023-04-03T00:02:13;0.80;99.90
25332;DHT22;13284;52.748;13.452;2023-04-03T00:04:38;0.70;99.90
25332;DHT22;13284;52.748;13.452;2023-04-03T00:07:03;0.70;99.90
25332;DHT22;13284;52.748;13.452;2023-04-03T00:09:29;0.80;99.90
25332;DHT22;13284;52.748;13.452;2023-04-03T00:11:55;0.70;99.90
25332;DHT22;13284;52.748;13.452;2023-04-03T00:14:20;0.70;99.90
25332;DHT22;13284;52.748;13.452;2023-04-03T00:16:46;0.70;99.90
25332;DHT22;13284;52.748;13.452;2023-04-03T00:19:11;0.70;99.90
25332;DHT22;13284;52.748;13.452;2023-04-03T00:21:38;0.70;99.90
25332;DHT22;13284;52.748;13.452;2023-04-03T00:24:04;0.60;99.90
25332;DHT22;13284;52.748;13.452;2023-04-03T00:26:30;0.70;99.90
25332;DHT22;13284;52.748;13.452;2023-04-03T00:28:55;0.60;99.90
25332;DHT22;13284;52.748;13.452;2023-04-03T00:31:24;0.60;99.90
25332;DHT22;13284;52.748;13.452;2023-04-03T00:33:49;0.60;99.90
25332;DHT22;13284;52.748;13.452;2023-04-03T00:36:16;0.60;99.90
25332;DHT22;13284;52.748;13.452;2023-04-03T00:38:41;0.60;99.90
25332;DHT22;13284;52.748;13.452;2023-04-03T00:41:07;0.50;99.90
25332;DHT22;13284;52.748;13.452;2023-04-03T00:43:33;0.40;99.90
25332;DHT22;13284;52.748;13.452;2023-04-03T00:45:59;0.40;99.90
25332;DHT22;13284;52.748;13.452;2023-04-03T00:48:30;0.30;99.90
25332;DHT22;13284;52.748;13.452;2023-04-03T00:50:57;0.20;99.90
25332;DHT22;13284;52.748;13.452;2023-04-03T00:53:26;0.20;99.90
25332;DHT22;13284;52.748;13.452;2023-04-03T00:55:54;0.20;99.90
25332;DHT22;13284;52.748;13.452;2023-04-03T00:58:26;0.10;99.90
25332;DHT22;13284;52.748;13.452;2023-04-03T01:00:55;0.10;99.90
25332;DHT22;13284;52.748;13.452;2023-04-03T01:03:23;0.10;99.90
25332;DHT22;13284;52.748;13.452;2023-04-03T01:05:49;0.00;99.90
25332;DHT22;13284;52.748;13.452;2023-04-03T01:08:15;0.10;99.90
25332;DHT22;13284;52.748;13.452;2023-04-03T01:10:41;0.00;99.90
25332;DHT22;13284;52.748;13.452;2023-04-03T01:13:29;0.00;99.90
25332;DHT22;13284;52.748;13.452;2023-04-03T01:15:55;0.00;99.90
25332;DHT22;13284;52.748;13.452;2023-04-03T01:18:22;0.00;99.90
25332;DHT22;13284;52.748;13.452;2023-04-03T01:24:12;0.10;99.90
25332;DHT22;13284;52.748;13.452;2023-04-03T01:26:41;0.10;99.90
25332;DHT22;13284;52.748;13.452;2023-04-03T01:29:09;0.10;99.90
25332;DHT22;13284;52.748;13.452;2023-04-03T01:34:01;0.00;99.90
25332;DHT22;13284;52.748;13.452;2023-04-03T01:36:29;0.00;99.90
25332;DHT22;13284;52.748;13.452;2023-04-03T01:38:55;0.00;99.90
25332;DHT22;13284;52.748;13.452;2023-04-03T01:41:22;-0.10;99.90
25332;DHT22;13284;52.748;13.452;2023-04-03T01:43:48;-0.10;99.90
25332;DHT22;13284;52.748;13.452;2023-04-03T01:46:15;-0.10;99.90
25332;DHT22;13284;52.748;13.452;2023-04-03T01:48:41;-0.10;99.90
25332;DHT22;13284;52.748;13.452;2023-04-03T01:51:07;-0.10;99.90
25332;DHT22;13284;52.748;13.452;2023-04-03T01:53:32;-0.20;99.90
25332;DHT22;13284;52.748;13.452;2023-04-03T01:55:58;-0.20;99.90
25332;DHT22;13284;52.748;13.452;2023-04-03T01:58:24;-0.30;99.90
25332;DHT22;13284;52.748;13.452;2023-04-03T02:00:50;-0.30;99.90
25332;DHT22;13284;52.748;13.452;2023-04-03T02:03:16;-0.30;99.90
25332;DHT22;13284;52.748;13.452;2023-04-03T02:05:41;-0.30;99.90
25332;DHT22;13284;52.748;13.452;2023-04-03T02:08:07;-0.30;99.90
25332;DHT22;13284;52.748;13.452;2023-04-03T02:10:32;-0.20;99.90
25332;DHT22;13284;52.748;13.452;2023-04-03T02:12:58;-0.30;99.90
25332;DHT22;13284;52.748;13.452;2023-04-03T02:15:23;-0.20;99.90
25332;DHT22;13284;52.748;13.452;2023-04-03T02:17:49;-0.30;99.90
25332;DHT22;13284;52.748;13.452;2023-04-03T02:20:14;-0.30;99.90
25332;DHT22;13284;52.748;13.452;2023-04-03T02:22:40;-0.20;99.90
25332;DHT22;13284;52.748;13.452;2023-04-03T02:25:08;-0.20;99.90
25332;DHT22;13284;52.748;13.452;2023-04-03T02:27:35;-0.20;99.90
25332;DHT22;13284;52.748;13.452;2023-04-03T02:30:01;-0.20;99.90
25332;DHT22;13284;52.748;13.452;2023-04-03T02:32:29;-0.20;99.90
25332;DHT22;13284;52.748;13.452;2023-04-03T02:34:55;-0.20;99.90
25332;DHT22;13284;52.748;13.452;2023-04-03T02:37:21;-0.20;99.90
25332;DHT22;13284;52.748;13.452;2023-04-03T02:39:46;-0.20;99.90
25332;DHT22;13284;52.748;13.452;2023-04-03T02:42:12;-0.20;99.90
25332;DHT22;13284;52.748;13.452;2023-04-03T02:44:37;-0.20;99.90
25332;DHT22;13284;52.748;13.452;2023-04-03T02:47:04;-0.20;99.90
25332;DHT22;13284;52.748;13.452;2023-04-03T02:49:29;-0.20;99.90
25332;DHT22;13284;52.748;13.452;2023-04-03T02:51:55;-0.20;99.90
25332;DHT22;13284;52.748;13.452;2023-04-03T02:54:23;-0.30;99.90
25332;DHT22;13284;52.748;13.452;2023-04-03T02:56:50;-0.20;99.90
25332;DHT22;13284;52.748;13.452;2023-04-03T02:59:16;-0.20;99.90
25332;DHT22;13284;52.748;13.452;2023-04-03T03:01:41;-0.30;99.90
25332;DHT22;13284;52.748;13.452;2023-04-03T03:04:07;-0.30;99.90
25332;DHT22;13284;52.748;13.452;2023-04-03T03:06:32;-0.30;99.90
25332;DHT22;13284;52.748;13.452;2023-04-03T03:08:58;-0.30;99.90
25332;DHT22;13284;52.748;13.452;2023-04-03T03:11:23;-0.30;99.90
25332;DHT22;13284;52.748;13.452;2023-04-03T03:13:49;-0.40;99.90
25332;DHT22;13284;52.748;13.452;2023-04-03T03:16:14;-0.40;99.90
25332;DHT22;13284;52.748;13.452;2023-04-03T03:18:40;-0.40;99.90
25332;DHT22;13284;52.748;13.452;2023-04-03T03:21:06;-0.50;99.90
25332;DHT22;13284;52.748;13.452;2023-04-03T03:23:32;-0.50;99.90
25332;DHT22;13284;52.748;13.452;2023-04-03T03:25:59;-0.50;99.90
25332;DHT22;13284;52.748;13.452;2023-04-03T03:28:26;-0.50;99.90
25332;DHT22;13284;52.748;13.452;2023-04-03T03:30:52;-0.50;99.90
25332;DHT22;13284;52.748;13.452;2023-04-03T03:33:18;-0.50;99.90
25332;DHT22;13284;52.748;13.452;2023-04-03T03:35:44;-0.50;99.90
25332;DHT22;13284;52.748;13.452;2023-04-03T03:38:10;-0.50;99.90
25332;DHT22;13284;52.748;13.452;2023-04-03T03:40:35;-0.50;99.90
25332;DHT22;13284;52.748;13.452;2023-04-03T03:43:01;-0.60;99.90
25332;DHT22;13284;52.748;13.452;2023-04-03T03:45:27;-0.50;99.90
25332;DHT22;13284;52.748;13.452;2023-04-03T03:47:52;-0.50;99.90
25332;DHT22;13284;52.748;13.452;2023-04-03T03:50:18;-0.60;99.90
25332;DHT22;13284;52.748;13.452;2023-04-03T03:52:44;-0.60;99.90
25332;DHT22;13284;52.748;13.452;2023-04-03T03:55:10;-0.60;99.90
25332;DHT22;13284;52.748;13.452;2023-04-03T03:57:35;-0.60;99.90
25332;DHT22;13284;52.748;13.452;2023-04-03T04:00:01;-0.60;99.90
25332;DHT22;13284;52.748;13.452;2023-04-03T04:02:27;-0.60;99.90
25332;DHT22;13284;52.748;13.452;2023-04-03T04:04:53;-0.60;99.90
25332;DHT22;13284;52.748;13.452;2023-04-03T04:07:18;-0.60;99.90
25332;DHT22;13284;52.748;13.452;2023-04-03T04:09:44;-0.60;99.90
25332;DHT22;13284;52.748;13.452;2023-04-03T04:12:09;-0.60;99.90
25332;DHT22;13284;52.748;13.452;2023-04-03T04:14:35;-0.60;99.90
25332;DHT22;13284;52.748;13.452;2023-04-03T04:17:00;-0.60;99.90
25332;DHT22;13284;52.748;13.452;2023-04-03T04:19:27;-0.60;99.90
25332;DHT22;13284;52.748;13.452;2023-04-03T04:21:53;-0.60;99.90
25332;DHT22;13284;52.748;13.452;2023-04-03T04:24:19;-0.60;99.90
25332;DHT22;13284;52.748;13.452;2023-04-03T04:26:44;-0.60;99.90
25332;DHT22;13284;52.748;13.452;2023-04-03T04:29:10;-0.60;99.90
25332;DHT22;13284;52.748;13.452;2023-04-03T04:31:36;-0.70;99.90
25332;DHT22;13284;52.748;13.452;2023-04-03T04:34:04;-0.60;99.90
25332;DHT22;13284;52.748;13.452;2023-04-03T04:36:30;-0.70;99.90
25332;DHT22;13284;52.748;13.452;2023-04-03T04:38:55;-0.70;99.90
25332;DHT22;13284;52.748;13.452;2023-04-03T04:41:22;-0.70;99.90
25332;DHT22;13284;52.748;13.452;2023-04-03T04:43:52;-0.70;99.90
25332;DHT22;13284;52.748;13.452;2023-04-03T04:46:17;-0.70;99.90
25332;DHT22;13284;52.748;13.452;2023-04-03T04:48:43;-0.70;99.90
25332;DHT22;13284;52.748;13.452;2023-04-03T04:51:09;-0.70;99.90
25332;DHT22;13284;52.748;13.452;2023-04-03T04:53:35;-0.70;99.90
25332;DHT22;13284;52.748;13.452;2023-04-03T04:56:01;-0.70;99.90
25332;DHT22;13284;52.748;13.452;2023-04-03T04:58:27;-0.70;99.90
25332;DHT22;13284;52.748;13.452;2023-04-03T05:01:03;-0.70;99.90
25332;DHT22;13284;52.748;13.452;2023-04-03T05:03:29;-0.70;99.90
25332;DHT22;13284;52.748;13.452;2023-04-03T05:05:55;-0.70;99.90
25332;DHT22;13284;52.748;13.452;2023-04-03T05:08:21;-0.60;99.90
25332;DHT22;13284;52.748;13.452;2023-04-03T05:10:54;-0.60;99.90
25332;DHT22;13284;52.748;13.452;2023-04-03T05:13:20;-0.50;99.90
25332;DHT22;13284;52.748;13.452;2023-04-03T05:15:46;-0.50;99.90
25332;DHT22;13284;52.748;13.452;2023-04-03T05:18:12;-0.50;99.90
25332;DHT22;13284;52.748;13.452;2023-04-03T05:20:38;-0.40;99.90
25332;DHT22;13284;52.748;13.452;2023-04-03T05:23:07;-0.40;99.90
25332;DHT22;13284;52.748;13.452;2023-04-03T05:25:32;-0.30;99.90
25332;DHT22;13284;52.748;13.452;2023-04-03T05:27:58;-0.30;99.90
25332;DHT22;13284;52.748;13.452;2023-04-03T05:30:24;-0.10;99.90
25332;DHT22;13284;52.748;13.452;2023-04-03T05:32:49;-0.10;99.90
25332;DHT22;13284;52.748;13.452;2023-04-03T05:35:15;0.00;99.90
25332;DHT22;13284;52.748;13.452;2023-04-03T05:37:41;0.20;99.90
25332;DHT22;13284;52.748;13.452;2023-04-03T05:40:07;0.20;99.90
25332;DHT22;13284;52.748;13.452;2023-04-03T05:42:33;0.40;99.90
25332;DHT22;13284;52.748;13.452;2023-04-03T05:44:59;0.50;99.90
25332;DHT22;13284;52.748;13.452;2023-04-03T05:47:25;0.50;99.90
25332;DHT22;13284;52.748;13.452;2023-04-03T05:49:50;0.50;99.90
25332;DHT22;13284;52.748;13.452;2023-04-03T05:52:30;0.50;99.90
25332;DHT22;13284;52.748;13.452;2023-04-03T05:54:57;0.40;99.90
25332;DHT22;13284;52.748;13.452;2023-04-03T05:57:23;0.50;99.90
25332;DHT22;13284;52.748;13.452;2023-04-03T05:59:49;0.50;99.90
25332;DHT22;13284;52.748;13.452;2023-04-03T06:02:17;0.50;99.90
25332;DHT22;13284;52.748;13.452;2023-04-03T06:04:43;0.50;99.90
25332;DHT22;13284;52.748;13.452;2023-04-03T06:07:17;0.60;99.90
25332;DHT22;13284;52.748;13.452;2023-04-03T06:09:43;0.60;99.90
25332;DHT22;13284;52.748;13.452;2023-04-03T06:12:09;0.60;99.90
25332;DHT22;13284;52.748;13.452;2023-04-03T06:14:35;0.70;99.90
25332;DHT22;13284;52.748;13.452;2023-04-03T06:17:01;0.70;99.90
25332;DHT22;13284;52.748;13.452;2023-04-03T06:19:27;0.70;99.90
25332;DHT22;13284;52.748;13.452;2023-04-03T06:21:53;0.80;99.90
25332;DHT22;13284;52.748;13.452;2023-04-03T06:24:19;0.80;99.90
25332;DHT22;13284;52.748;13.452;2023-04-03T06:26:47;0.90;99.90
25332;DHT22;13284;52.748;13.452;2023-04-03T06:29:12;0.90;99.90
25332;DHT22;13284;52.748;13.452;2023-04-03T06:31:38;1.00;99.90
25332;DHT22;13284;52.748;13.452;2023-04-03T06:34:04;1.00;99.90
25332;DHT22;13284;52.748;13.452;2023-04-03T06:36:29;1.00;99.90
25332;DHT22;13284;52.748;13.452;2023-04-03T06:38:55;1.20;99.90
25332;DHT22;13284;52.748;13.452;2023-04-03T06:41:23;1.30;99.90
25332;DHT22;13284;52.748;13.452;2023-04-03T06:43:50;1.30;99.90
25332;DHT22;13284;52.748;13.452;2023-04-03T06:46:18;1.40;99.90
25332;DHT22;13284;52.748;13.452;2023-04-03T06:48:44;1.50;99.90
25332;DHT22;13284;52.748;13.452;2023-04-03T06:51:25;1.70;99.90
25332;DHT22;13284;52.748;13.452;2023-04-03T06:53:53;2.00;99.90
25332;DHT22;13284;52.748;13.452;2023-04-03T06:56:19;2.00;99.90
25332;DHT22;13284;52.748;13.452;2023-04-03T06:58:45;2.10;99.90
25332;DHT22;13284;52.748;13.452;2023-04-03T07:01:13;2.10;99.90
25332;DHT22;13284;52.748;13.452;2023-04-03T07:03:39;2.00;99.90
25332;DHT22;13284;52.748;13.452;2023-04-03T07:06:07;2.00;99.90
25332;DHT22;13284;52.748;13.452;2023-04-03T07:08:33;2.20;99.90
25332;DHT22;13284;52.748;13.452;2023-04-03T07:11:03;2.10;99.90
25332;DHT22;13284;52.748;13.452;2023-04-03T07:13:28;2.20;99.90
25332;DHT22;13284;52.748;13.452;2023-04-03T07:15:54;2.30;99.90
25332;DHT22;13284;52.748;13.452;2023-04-03T07:18:20;2.40;99.90
25332;DHT22;13284;52.748;13.452;2023-04-03T07:20:46;2.50;99.90
25332;DHT22;13284;52.748;13.452;2023-04-03T07:23:12;2.60;99.90
25332;DHT22;13284;52.748;13.452;2023-04-03T07:25:43;2.70;99.90
25332;DHT22;13284;52.748;13.452;2023-04-03T07:28:09;2.80;99.90
25332;DHT22;13284;52.748;13.452;2023-04-03T07:30:35;3.00;99.90
25332;DHT22;13284;52.748;13.452;2023-04-03T07:33:07;3.20;99.90
25332;DHT22;13284;52.748;13.452;2023-04-03T07:35:33;3.20;99.90
25332;DHT22;13284;52.748;13.452;2023-04-03T07:37:58;3.30;99.90
25332;DHT22;13284;52.748;13.452;2023-04-03T07:40:24;3.40;99.90
25332;DHT22;13284;52.748;13.452;2023-04-03T07:42:50;3.40;99.90
25332;DHT22;13284;52.748;13.452;2023-04-03T07:45:16;3.50;99.90
25332;DHT22;13284;52.748;13.452;2023-04-03T07:47:42;3.50;99.90
25332;DHT22;13284;52.748;13.452;2023-04-03T07:50:08;3.60;99.90
25332;DHT22;13284;52.748;13.452;2023-04-03T07:52:33;3.70;99.90
25332;DHT22;13284;52.748;13.452;2023-04-03T07:54:59;3.50;99.90
25332;DHT22;13284;52.748;13.452;2023-04-03T07:57:24;3.60;99.90
25332;DHT22;13284;52.748;13.452;2023-04-03T07:59:50;3.60;99.90
25332;DHT22;13284;52.748;13.452;2023-04-03T08:02:15;3.70;99.90
25332;DHT22;13284;52.748;13.452;2023-04-03T08:04:41;3.90;99.90
25332;DHT22;13284;52.748;13.452;2023-04-03T08:07:06;4.20;99.90
25332;DHT22;13284;52.748;13.452;2023-04-03T08:09:32;4.30;99.90
25332;DHT22;13284;52.748;13.452;2023-04-03T08:11:58;4.50;99.90
25332;DHT22;13284;52.748;13.452;2023-04-03T08:14:24;4.80;99.90
25332;DHT22;13284;52.748;13.452;2023-04-03T08:16:50;4.40;99.90
25332;DHT22;13284;52.748;13.452;2023-04-03T08:19:16;4.60;99.90
25332;DHT22;13284;52.748;13.452;2023-04-03T08:21:43;5.00;99.90
25332;DHT22;13284;52.748;13.452;2023-04-03T08:24:09;5.30;99.90
25332;DHT22;13284;52.748;13.452;2023-04-03T08:26:35;5.50;99.90
25332;DHT22;13284;52.748;13.452;2023-04-03T08:29:01;5.10;99.90
25332;DHT22;13284;52.748;13.452;2023-04-03T08:31:26;4.90;99.90
25332;DHT22;13284;52.748;13.452;2023-04-03T08:33:53;4.50;99.90
25332;DHT22;13284;52.748;13.452;2023-04-03T08:36:21;4.30;99.90
25332;DHT22;13284;52.748;13.452;2023-04-03T08:38:47;4.70;99.90
25332;DHT22;13284;52.748;13.452;2023-04-03T08:41:18;4.60;99.90
25332;DHT22;13284;52.748;13.452;2023-04-03T08:46:26;4.70;99.90
25332;DHT22;13284;52.748;13.452;2023-04-03T08:48:59;4.70;99.90
25332;DHT22;13284;52.748;13.452;2023-04-03T08:51:26;4.90;99.90
25332;DHT22;13284;52.748;13.452;2023-04-03T08:53:59;5.20;99.90
25332;DHT22;13284;52.748;13.452;2023-04-03T08:56:27;6.20;99.90
25332;DHT22;13284;52.748;13.452;2023-04-03T08:58:56;6.90;99.90
25332;DHT22;13284;52.748;13.452;2023-04-03T09:01:27;7.70;99.90
25332;DHT22;13284;52.748;13.452;2023-04-03T09:03:55;8.00;99.90
25332;DHT22;13284;52.748;13.452;2023-04-03T09:06:23;7.90;99.90
25332;DHT22;13284;52.748;13.452;2023-04-03T09:14:42;8.10;99.90
25332;DHT22;13284;52.748;13.452;2023-04-03T09:22:40;8.10;99.90
25332;DHT22;13284;52.748;13.452;2023-04-03T09:27:39;7.60;99.90
25332;DHT22;13284;52.748;13.452;2023-04-03T09:30:16;7.00;99.90
25332;DHT22;13284;52.748;13.452;2023-04-03T09:32:48;6.70;99.90
25332;DHT22;13284;52.748;13.452;2023-04-03T09:35:33;6.50;99.90
25332;DHT22;13284;52.748;13.452;2023-04-03T09:38:20;6.10;99.90
25332;DHT22;13284;52.748;13.452;2023-04-03T09:41:13;5.70;99.90
25332;DHT22;13284;52.748;13.452;2023-04-03T09:43:53;5.60;99.90
25332;DHT22;13284;52.748;13.452;2023-04-03T09:49:00;5.90;99.90
25332;DHT22;13284;52.748;13.452;2023-04-03T09:51:28;6.10;99.90
25332;DHT22;13284;52.748;13.452;2023-04-03T09:53:55;5.90;99.90
25332;DHT22;13284;52.748;13.452;2023-04-03T09:56:27;6.20;99.90
25332;DHT22;13284;52.748;13.452;2023-04-03T10:01:41;7.60;99.90
25332;DHT22;13284;52.748;13.452;2023-04-03T10:04:19;7.70;99.90
25332;DHT22;13284;52.748;13.452;2023-04-03T10:06:51;7.50;99.90
25332;DHT22;13284;52.748;13.452;2023-04-03T10:14:26;6.40;99.90
25332;DHT22;13284;52.748;13.452;2023-04-03T10:17:14;6.30;99.90
25332;DHT22;13284;52.748;13.452;2023-04-03T10:19:59;6.20;99.90
25332;DHT22;13284;52.748;13.452;2023-04-03T10:25:15;6.40;99.90
25332;DHT22;13284;52.748;13.452;2023-04-03T10:28:25;6.60;99.90
25332;DHT22;13284;52.748;13.452;2023-04-03T10:31:14;6.50;99.90
25332;DHT22;13284;52.748;13.452;2023-04-03T10:34:01;6.60;99.90
25332;DHT22;13284;52.748;13.452;2023-04-03T10:36:43;7.00;99.90
25332;DHT22;13284;52.748;13.452;2023-04-03T10:42:03;6.70;99.90
25332;DHT22;13284;52.748;13.452;2023-04-03T10:44:56;6.50;99.90
25332;DHT22;13284;52.748;13.452;2023-04-03T10:47:51;6.20;99.90
25332;DHT22;13284;52.748;13.452;2023-04-03T10:50:28;6.20;99.90
25332;DHT22;13284;52.748;13.452;2023-04-03T10:55:57;6.00;99.90
25332;DHT22;13284;52.748;13.452;2023-04-03T10:58:32;5.90;99.90
25332;DHT22;13284;52.748;13.452;2023-04-03T11:01:04;5.90;99.90
25332;DHT22;13284;52.748;13.452;2023-04-03T11:06:01;6.00;99.90
25332;DHT22;13284;52.748;13.452;2023-04-03T11:11:36;5.90;99.90
25332;DHT22;13284;52.748;13.452;2023-04-03T11:14:09;5.90;99.90
25332;DHT22;13284;52.748;13.452;2023-04-03T11:16:41;6.00;99.90
25332;DHT22;13284;52.748;13.452;2023-04-03T11:19:21;5.90;99.90
25332;DHT22;13284;52.748;13.452;2023-04-03T11:22:04;5.90;99.90
25332;DHT22;13284;52.748;13.452;2023-04-03T11:24:33;5.90;99.90
25332;DHT22;13284;52.748;13.452;2023-04-03T11:27:01;5.70;99.90
25332;DHT22;13284;52.748;13.452;2023-04-03T11:29:34;5.50;99.90
25332;DHT22;13284;52.748;13.452;2023-04-03T11:34:53;5.60;99.90
25332;DHT22;13284;52.748;13.452;2023-04-03T11:37:33;5.60;99.90
25332;DHT22;13284;52.748;13.452;2023-04-03T11:42:34;5.60;99.90
25332;DHT22;13284;52.748;13.452;2023-04-03T11:47:49;5.70;99.90
25332;DHT22;13284;52.748;13.452;2023-04-03T11:53:03;5.50;99.90
25332;DHT22;13284;52.748;13.452;2023-04-03T12:14:20;6.00;99.90
25332;DHT22;13284;52.748;13.452;2023-04-03T12:19:02;6.20;99.90
25332;DHT22;13284;52.748;13.452;2023-04-03T12:26:45;6.90;99.90
25332;DHT22;13284;52.748;13.452;2023-04-03T12:32:24;6.20;99.90
25332;DHT22;13284;52.748;13.452;2023-04-03T12:35:10;6.10;99.90
25332;DHT22;13284;52.748;13.452;2023-04-03T12:38:31;6.20;99.90
25332;DHT22;13284;52.748;13.452;2023-04-03T12:41:21;6.00;99.90
25332;DHT22;13284;52.748;13.452;2023-04-03T12:46:50;6.00;99.90
25332;DHT22;13284;52.748;13.452;2023-04-03T12:49:40;5.90;99.90
25332;DHT22;13284;52.748;13.452;2023-04-03T12:52:19;6.00;99.90
25332;DHT22;13284;52.748;13.452;2023-04-03T12:54:47;6.10;99.90
25332;DHT22;13284;52.748;13.452;2023-04-03T12:59:43;5.80;99.90
25332;DHT22;13284;52.748;13.452;2023-04-03T13:02:25;5.70;99.90
25332;DHT22;13284;52.748;13.452;2023-04-03T13:04:53;5.80;99.90
25332;DHT22;13284;52.748;13.452;2023-04-03T13:07:22;5.70;99.90
25332;DHT22;13284;52.748;13.452;2023-04-03T13:12:33;5.60;99.90
25332;DHT22;13284;52.748;13.452;2023-04-03T13:15:03;5.50;99.90
25332;DHT22;13284;52.748;13.452;2023-04-03T13:17:38;5.70;99.90
25332;DHT22;13284;52.748;13.452;2023-04-03T13:20:24;5.70;99.90
25332;DHT22;13284;52.748;13.452;2023-04-03T13:25:21;5.60;99.90
25332;DHT22;13284;52.748;13.452;2023-04-03T13:27:48;5.60;99.90
25332;DHT22;13284;52.748;13.452;2023-04-03T13:30:32;5.50;99.90
25332;DHT22;13284;52.748;13.452;2023-04-03T13:33:01;5.40;99.90
25332;DHT22;13284;52.748;13.452;2023-04-03T13:37:57;5.50;99.90
25332;DHT22;13284;52.748;13.452;2023-04-03T13:40:24;5.50;99.90
25332;DHT22;13284;52.748;13.452;2023-04-03T13:43:14;5.40;99.90
25332;DHT22;13284;52.748;13.452;2023-04-03T13:48:22;5.30;99.90
25332;DHT22;13284;52.748;13.452;2023-04-03T13:53:56;5.60;99.90
25332;DHT22;13284;52.748;13.452;2023-04-03T13:56:31;5.50;99.90
25332;DHT22;13284;52.748;13.452;2023-04-03T13:59:19;5.60;99.90
25332;DHT22;13284;52.748;13.452;2023-04-03T14:01:52;5.90;99.90
25332;DHT22;13284;52.748;13.452;2023-04-03T14:04:26;6.20;99.90
25332;DHT22;13284;52.748;13.452;2023-04-03T14:06:53;6.80;99.90
25332;DHT22;13284;52.748;13.452;2023-04-03T14:09:20;7.10;99.90
25332;DHT22;13284;52.748;13.452;2023-04-03T14:11:52;7.00;99.90
25332;DHT22;13284;52.748;13.452;2023-04-03T14:14:30;6.80;99.90
25332;DHT22;13284;52.748;13.452;2023-04-03T14:16:58;6.50;99.90
25332;DHT22;13284;52.748;13.452;2023-04-03T14:19:33;6.10;99.90
25332;DHT22;13284;52.748;13.452;2023-04-03T14:22:06;6.00;99.90
25332;DHT22;13284;52.748;13.452;2023-04-03T14:24:32;6.00;99.90
25332;DHT22;13284;52.748;13.452;2023-04-03T14:26:58;5.80;99.90
25332;DHT22;13284;52.748;13.452;2023-04-03T14:32:47;5.50;99.90
25332;DHT22;13284;52.748;13.452;2023-04-03T14:35:13;5.60;99.90
25332;DHT22;13284;52.748;13.452;2023-04-03T14:37:39;5.60;99.90
25332;DHT22;13284;52.748;13.452;2023-04-03T14:40:06;5.50;99.90
25332;DHT22;13284;52.748;13.452;2023-04-03T14:42:35;5.30;99.90
25332;DHT22;13284;52.748;13.452;2023-04-03T14:45:02;5.30;99.90
25332;DHT22;13284;52.748;13.452;2023-04-03T14:47:29;5.10;99.90
25332;DHT22;13284;52.748;13.452;2023-04-03T14:49:55;5.10;99.90
25332;DHT22;13284;52.748;13.452;2023-04-03T14:52:30;5.00;99.90
25332;DHT22;13284;52.748;13.452;2023-04-03T14:54:57;4.90;99.90
25332;DHT22;13284;52.748;13.452;2023-04-03T14:57:24;5.00;99.90
25332;DHT22;13284;52.748;13.452;2023-04-03T14:59:50;5.00;99.90
25332;DHT22;13284;52.748;13.452;2023-04-03T15:02:29;5.00;99.90
25332;DHT22;13284;52.748;13.452;2023-04-03T15:04:56;5.00;99.90
25332;DHT22;13284;52.748;13.452;2023-04-03T15:07:24;5.00;99.90
25332;DHT22;13284;52.748;13.452;2023-04-03T15:09:50;5.10;99.90
25332;DHT22;13284;52.748;13.452;2023-04-03T15:12:16;5.30;99.90
25332;DHT22;13284;52.748;13.452;2023-04-03T15:14:42;5.20;99.90
25332;DHT22;13284;52.748;13.452;2023-04-03T15:17:15;5.20;99.90
25332;DHT22;13284;52.748;13.452;2023-04-03T15:19:42;5.20;99.90
25332;DHT22;13284;52.748;13.452;2023-04-03T15:22:17;5.30;99.90
25332;DHT22;13284;52.748;13.452;2023-04-03T15:24:47;5.30;99.90
25332;DHT22;13284;52.748;13.452;2023-04-03T15:27:13;5.30;99.90
25332;DHT22;13284;52.748;13.452;2023-04-03T15:29:41;5.10;99.90
25332;DHT22;13284;52.748;13.452;2023-04-03T15:32:08;5.00;99.90
25332;DHT22;13284;52.748;13.452;2023-04-03T15:34:34;4.80;99.90
25332;DHT22;13284;52.748;13.452;2023-04-03T15:37:00;4.70;99.90
25332;DHT22;13284;52.748;13.452;2023-04-03T15:39:26;4.90;99.90
25332;DHT22;13284;52.748;13.452;2023-04-03T15:41:51;5.30;99.90
25332;DHT22;13284;52.748;13.452;2023-04-03T15:44:17;5.70;99.90
25332;DHT22;13284;52.748;13.452;2023-04-03T15:46:47;6.10;99.90
25332;DHT22;13284;52.748;13.452;2023-04-03T15:49:14;6.30;99.90
25332;DHT22;13284;52.748;13.452;2023-04-03T15:51:40;6.60;99.90
25332;DHT22;13284;52.748;13.452;2023-04-03T15:54:06;6.30;99.90
25332;DHT22;13284;52.748;13.452;2023-04-03T15:56:31;6.00;99.90
25332;DHT22;13284;52.748;13.452;2023-04-03T15:58:57;5.70;99.90
25332;DHT22;13284;52.748;13.452;2023-04-03T16:01:22;5.50;99.90
25332;DHT22;13284;52.748;13.452;2023-04-03T16:03:48;5.30;99.90
25332;DHT22;13284;52.748;13.452;2023-04-03T16:06:17;5.20;99.90
25332;DHT22;13284;52.748;13.452;2023-04-03T16:08:44;5.20;99.90
25332;DHT22;13284;52.748;13.452;2023-04-03T16:11:10;5.20;99.90
25332;DHT22;13284;52.748;13.452;2023-04-03T16:13:36;5.20;99.90
25332;DHT22;13284;52.748;13.452;2023-04-03T16:16:01;5.10;99.90
25332;DHT22;13284;52.748;13.452;2023-04-03T16:18:28;5.00;99.90
25332;DHT22;13284;52.748;13.452;2023-04-03T16:20:54;5.00;99.90
25332;DHT22;13284;52.748;13.452;2023-04-03T16:23:21;4.90;99.90
25332;DHT22;13284;52.748;13.452;2023-04-03T16:25:47;4.80;99.90
25332;DHT22;13284;52.748;13.452;2023-04-03T16:28:15;4.70;99.90
25332;DHT22;13284;52.748;13.452;2023-04-03T16:30:46;4.70;99.90
25332;DHT22;13284;52.748;13.452;2023-04-03T16:33:12;4.70;99.90
25332;DHT22;13284;52.748;13.452;2023-04-03T16:35:39;4.80;99.90
25332;DHT22;13284;52.748;13.452;2023-04-03T16:38:05;4.70;99.90
25332;DHT22;13284;52.748;13.452;2023-04-03T16:40:30;4.60;99.90
25332;DHT22;13284;52.748;13.452;2023-04-03T16:42:56;4.60;99.90
25332;DHT22;13284;52.748;13.452;2023-04-03T16:45:21;4.60;99.90
25332;DHT22;13284;52.748;13.452;2023-04-03T16:47:47;4.60;99.90
25332;DHT22;13284;52.748;13.452;2023-04-03T16:50:13;4.60;99.90
25332;DHT22;13284;52.748;13.452;2023-04-03T16:52:38;4.60;99.90
25332;DHT22;13284;52.748;13.452;2023-04-03T16:55:04;4.60;99.90
25332;DHT22;13284;52.748;13.452;2023-04-03T16:57:30;4.50;99.90
25332;DHT22;13284;52.748;13.452;2023-04-03T16:59:55;4.50;99.90
25332;DHT22;13284;52.748;13.452;2023-04-03T17:02:22;4.50;99.90
25332;DHT22;13284;52.748;13.452;2023-04-03T17:04:50;4.50;99.90
25332;DHT22;13284;52.748;13.452;2023-04-03T17:07:17;4.40;99.90
25332;DHT22;13284;52.748;13.452;2023-04-03T17:09:42;4.40;99.90
25332;DHT22;13284;52.748;13.452;2023-04-03T17:12:08;4.40;99.90
25332;DHT22;13284;52.748;13.452;2023-04-03T17:14:33;4.40;99.90
25332;DHT22;13284;52.748;13.452;2023-04-03T17:16:59;4.30;99.90
25332;DHT22;13284;52.748;13.452;2023-04-03T17:19:24;4.30;99.90
25332;DHT22;13284;52.748;13.452;2023-04-03T17:21:51;4.20;99.90
25332;DHT22;13284;52.748;13.452;2023-04-03T17:24:17;4.20;99.90
25332;DHT22;13284;52.748;13.452;2023-04-03T17:26:42;4.10;99.90